createdAt,value
2017-01-29T00:00:20.136Z,23.41
2017-01-29T00:00:48.625Z,23.42
2017-01-29T00:01:16.920Z,23.33
2017-01-29T00:01:45.585Z,23.34
2017-01-29T00:02:13.844Z,23.33
2017-01-29T00:02:42.122Z,23.33
2017-01-29T00:03:10.368Z,23.28
2017-01-29T00:03:38.711Z,23.29
2017-01-29T00:04:07.125Z,23.29
2017-01-29T00:05:18.340Z,23.29
2017-01-29T00:05:46.712Z,23.25
2017-01-29T00:06:15.114Z,23.23
2017-01-29T00:06:43.323Z,23.31
2017-01-29T00:07:11.733Z,23.29
2017-01-29T00:07:40.118Z,23.29
2017-01-29T00:08:08.594Z,23.26
2017-01-29T00:08:36.790Z,23.22
2017-01-29T00:09:05.119Z,23.17
2017-01-29T00:09:33.474Z,23.28
2017-01-29T00:10:01.710Z,23.22
2017-01-29T00:11:13.115Z,23.22
2017-01-29T00:11:41.484Z,23.33
2017-01-29T00:12:09.995Z,23.25
2017-01-29T00:12:38.202Z,23.34
2017-01-29T00:13:06.588Z,23.25
2017-01-29T00:13:34.603Z,23.28
2017-01-29T00:14:03.127Z,23.31
2017-01-29T00:14:31.494Z,23.36
2017-01-29T00:14:59.738Z,23.23
2017-01-29T00:15:28.180Z,23.26
2017-01-29T00:15:56.553Z,23.28
2017-01-29T00:17:07.862Z,23.28
2017-01-29T00:17:36.149Z,23.28
2017-01-29T00:18:04.676Z,23.29
2017-01-29T00:18:32.977Z,23.39
2017-01-29T00:19:01.279Z,23.36
2017-01-29T00:19:29.572Z,23.23
2017-01-29T00:19:58.443Z,23.25
2017-01-29T00:20:26.656Z,23.28
2017-01-29T00:20:54.898Z,23.28
2017-01-29T00:21:23.068Z,23.29
2017-01-29T00:21:51.426Z,23.25
2017-01-29T00:23:03.155Z,23.34
2017-01-29T00:23:31.467Z,23.29
2017-01-29T00:23:59.896Z,23.26
2017-01-29T00:24:28.202Z,23.28
2017-01-29T00:24:56.704Z,23.26
2017-01-29T00:25:24.982Z,23.22
2017-01-29T00:25:53.370Z,23.23
2017-01-29T00:26:21.690Z,23.28
2017-01-29T00:26:50.033Z,23.33
2017-01-29T00:27:18.295Z,23.33
2017-01-29T00:27:46.654Z,23.25
2017-01-29T00:28:57.949Z,23.37
2017-01-29T00:29:26.140Z,23.37
2017-01-29T00:29:54.553Z,23.37
2017-01-29T00:30:22.661Z,23.36
2017-01-29T00:30:51.110Z,23.29
2017-01-29T00:31:19.419Z,23.39
2017-01-29T00:31:47.710Z,23.39
2017-01-29T00:32:16.005Z,23.34
2017-01-29T00:32:44.343Z,23.37
2017-01-29T00:33:12.610Z,23.37
2017-01-29T00:33:40.865Z,23.34
2017-01-29T00:34:52.373Z,23.37
2017-01-29T00:35:20.755Z,23.41
2017-01-29T00:35:49.250Z,23.44
2017-01-29T00:36:17.456Z,23.44
2017-01-29T00:36:45.844Z,23.34
2017-01-29T00:37:14.424Z,23.36
2017-01-29T00:37:42.891Z,23.39
2017-01-29T00:38:11.260Z,23.36
2017-01-29T00:38:39.460Z,23.34
2017-01-29T00:39:07.735Z,23.33
2017-01-29T00:39:35.896Z,23.34
2017-01-29T00:40:47.217Z,23.34
2017-01-29T00:41:15.591Z,23.31
2017-01-29T00:41:43.984Z,23.29
2017-01-29T00:42:12.100Z,23.39
2017-01-29T00:42:40.391Z,23.23
2017-01-29T00:43:08.603Z,23.29
2017-01-29T00:43:37.000Z,23.28
2017-01-29T00:44:05.277Z,23.23
2017-01-29T00:44:33.523Z,23.36
2017-01-29T00:45:01.971Z,23.36
2017-01-29T00:45:30.442Z,23.26
2017-01-29T00:46:41.845Z,23.28
2017-01-29T00:47:10.044Z,23.28
2017-01-29T00:47:38.545Z,23.36
2017-01-29T00:48:06.925Z,23.17
2017-01-29T00:48:35.313Z,23.21
2017-01-29T00:49:04.287Z,23.17
2017-01-29T00:49:32.753Z,23.25
2017-01-29T00:50:01.050Z,23.29
2017-01-29T00:50:29.120Z,23.29
2017-01-29T00:50:57.578Z,23.31
2017-01-29T00:51:25.935Z,23.26
2017-01-29T00:52:37.222Z,23.29
2017-01-29T00:53:05.594Z,23.21
2017-01-29T00:53:34.002Z,23.25
2017-01-29T00:54:02.367Z,23.28
2017-01-29T00:54:30.762Z,23.25
2017-01-29T00:54:59.065Z,23.21
2017-01-29T00:55:27.610Z,23.25
2017-01-29T00:55:55.972Z,23.23
2017-01-29T00:56:24.301Z,23.34
2017-01-29T00:56:52.670Z,23.23
2017-01-29T00:57:21.344Z,23.31
2017-01-29T00:58:32.649Z,23.26
2017-01-29T00:59:00.834Z,23.28
2017-01-29T00:59:29.664Z,23.28
2017-01-29T00:59:58.823Z,23.26
2017-01-29T01:00:27.207Z,23.23
2017-01-29T01:00:55.338Z,23.31
2017-01-29T01:01:23.891Z,23.26
2017-01-29T01:01:52.255Z,23.28
2017-01-29T01:02:20.623Z,23.31
2017-01-29T01:02:48.979Z,23.23
2017-01-29T01:03:17.677Z,23.17
2017-01-29T01:04:29.363Z,23.26
2017-01-29T01:04:57.666Z,23.26
2017-01-29T01:05:26.186Z,23.17
2017-01-29T01:05:55.251Z,23.26
2017-01-29T01:06:23.634Z,23.28
2017-01-29T01:06:52.068Z,23.31
2017-01-29T01:07:20.579Z,23.28
2017-01-29T01:07:49.033Z,23.34
2017-01-29T01:08:17.454Z,23.26
2017-01-29T01:08:45.876Z,23.34
2017-01-29T01:09:14.259Z,23.31
2017-01-29T01:10:25.754Z,23.25
2017-01-29T01:10:54.043Z,23.17
2017-01-29T01:11:22.482Z,23.17
2017-01-29T01:11:50.691Z,23.28
2017-01-29T01:12:19.078Z,23.23
2017-01-29T01:12:48.184Z,23.25
2017-01-29T01:13:16.587Z,23.22
2017-01-29T01:13:44.790Z,23.18
2017-01-29T01:14:12.978Z,23.29
2017-01-29T01:14:41.206Z,23.25
2017-01-29T01:15:09.659Z,23.11
2017-01-29T01:16:21.808Z,23.25
2017-01-29T01:16:50.104Z,23.22
2017-01-29T01:17:18.620Z,23.25
2017-01-29T01:17:46.908Z,23.22
2017-01-29T01:18:15.192Z,23.18
2017-01-29T01:18:43.314Z,23.15
2017-01-29T01:19:11.770Z,23.23
2017-01-29T01:19:40.041Z,23.15
2017-01-29T01:20:08.288Z,23.26
2017-01-29T01:20:36.654Z,23.21
2017-01-29T01:21:05.116Z,23.14
2017-01-29T01:22:16.428Z,23.22
2017-01-29T01:22:44.794Z,23.22
2017-01-29T01:23:13.098Z,23.21
2017-01-29T01:23:42.166Z,23.11
2017-01-29T01:24:10.459Z,23.26
2017-01-29T01:24:38.855Z,23.21
2017-01-29T01:25:07.376Z,23.21
2017-01-29T01:25:35.775Z,23.21
2017-01-29T01:26:04.343Z,23.28
2017-01-29T01:26:32.767Z,23.21
2017-01-29T01:27:01.104Z,23.08
2017-01-29T01:28:12.524Z,23.14
2017-01-29T01:28:40.920Z,23.13
2017-01-29T01:29:09.427Z,23.14
2017-01-29T01:29:37.734Z,23.21
2017-01-29T01:30:06.028Z,23.1
2017-01-29T01:30:34.247Z,23.1
2017-01-29T01:31:02.663Z,23.25
2017-01-29T01:31:31.096Z,23.1
2017-01-29T01:31:59.306Z,23.28
2017-01-29T01:32:27.632Z,23.21
2017-01-29T01:32:56.087Z,23.18
2017-01-29T01:34:07.493Z,23.21
2017-01-29T01:34:35.615Z,23.23
2017-01-29T01:35:04.135Z,23.17
2017-01-29T01:35:32.439Z,23.23
2017-01-29T01:36:00.737Z,23.22
2017-01-29T01:36:29.040Z,23.11
2017-01-29T01:36:57.618Z,23.13
2017-01-29T01:37:26.057Z,23.26
2017-01-29T01:37:54.818Z,23.13
2017-01-29T01:38:23.525Z,23.21
2017-01-29T01:38:51.939Z,23.18
2017-01-29T01:40:03.449Z,23.18
2017-01-29T01:40:31.772Z,23.18
2017-01-29T01:41:00.191Z,23.23
2017-01-29T01:41:28.491Z,23.25
2017-01-29T01:41:56.791Z,23.18
2017-01-29T01:42:25.862Z,23.25
2017-01-29T01:42:54.364Z,23.18
2017-01-29T01:43:22.705Z,23.26
2017-01-29T01:43:51.129Z,23.23
2017-01-29T01:44:19.507Z,23.25
2017-01-29T01:44:47.888Z,23.25
2017-01-29T01:45:59.316Z,23.39
2017-01-29T01:46:27.712Z,23.29
2017-01-29T01:46:56.138Z,23.23
2017-01-29T01:47:24.431Z,23.33
2017-01-29T01:47:52.635Z,23.23
2017-01-29T01:48:20.940Z,23.34
2017-01-29T01:48:49.509Z,23.37
2017-01-29T01:49:17.770Z,23.29
2017-01-29T01:49:45.975Z,23.26
2017-01-29T01:50:14.778Z,23.26
2017-01-29T01:50:43.258Z,23.23
2017-01-29T01:51:54.578Z,23.23
2017-01-29T01:52:22.888Z,23.21
2017-01-29T01:52:51.309Z,23.25
2017-01-29T01:53:19.610Z,23.26
2017-01-29T01:53:48.001Z,23.26
2017-01-29T01:54:16.223Z,23.25
2017-01-29T01:54:44.775Z,23.26
2017-01-29T01:55:13.063Z,23.29
2017-01-29T01:55:41.262Z,23.26
2017-01-29T01:56:09.566Z,23.23
2017-01-29T01:56:37.919Z,23.21
2017-01-29T01:57:49.243Z,23.25
2017-01-29T01:58:17.655Z,23.26
2017-01-29T01:58:46.282Z,23.26
2017-01-29T01:59:14.671Z,23.28
2017-01-29T01:59:42.879Z,23.23
2017-01-29T02:00:11.847Z,23.28
2017-01-29T02:00:40.212Z,23.23
2017-01-29T02:01:08.471Z,23.29
2017-01-29T02:01:36.860Z,23.23
2017-01-29T02:02:05.050Z,23.29
2017-01-29T02:02:33.519Z,23.17
2017-01-29T02:03:45.009Z,23.23
2017-01-29T02:04:13.101Z,23.22
2017-01-29T02:04:41.610Z,23.22
2017-01-29T02:05:10.198Z,23.15
2017-01-29T02:05:38.585Z,23.21
2017-01-29T02:06:06.987Z,23.25
2017-01-29T02:06:35.470Z,23.22
2017-01-29T02:07:03.713Z,23.21
2017-01-29T02:07:31.981Z,23.22
2017-01-29T02:08:00.347Z,23.18
2017-01-29T02:08:29.026Z,23.21
2017-01-29T02:09:40.429Z,23.17
2017-01-29T02:10:08.537Z,23.1
2017-01-29T02:10:36.927Z,23.13
2017-01-29T02:11:05.136Z,23.13
2017-01-29T02:11:33.521Z,23.08
2017-01-29T02:12:01.884Z,23.13
2017-01-29T02:12:30.188Z,23.14
2017-01-29T02:12:58.341Z,23.11
2017-01-29T02:13:26.485Z,23.06
2017-01-29T02:13:54.729Z,23.07
2017-01-29T02:14:23.048Z,23.06
2017-01-29T02:15:34.418Z,23.07
2017-01-29T02:16:02.608Z,23.04
2017-01-29T02:16:30.886Z,23.07
2017-01-29T02:16:59.065Z,23.06
2017-01-29T02:17:27.279Z,23.07
2017-01-29T02:17:55.648Z,22.99
2017-01-29T02:18:24.050Z,22.99
2017-01-29T02:18:52.314Z,22.99
2017-01-29T02:19:20.550Z,22.99
2017-01-29T02:19:48.886Z,22.98
2017-01-29T02:20:17.211Z,22.95
2017-01-29T02:21:28.587Z,22.81
2017-01-29T02:21:57.328Z,22.86
2017-01-29T02:22:25.696Z,22.86
2017-01-29T02:22:54.087Z,22.77
2017-01-29T02:23:22.382Z,22.78
2017-01-29T02:23:50.760Z,22.83
2017-01-29T02:24:19.244Z,22.77
2017-01-29T02:24:47.506Z,22.76
2017-01-29T02:25:15.742Z,22.81
2017-01-29T02:25:44.068Z,22.8
2017-01-29T02:26:12.472Z,22.8
2017-01-29T02:27:23.930Z,22.68
2017-01-29T02:27:52.296Z,22.74
2017-01-29T02:28:20.866Z,22.58
2017-01-29T02:28:49.201Z,22.64
2017-01-29T02:29:17.495Z,22.55
2017-01-29T02:29:45.782Z,22.53
2017-01-29T02:30:14.233Z,22.51
2017-01-29T02:30:42.491Z,22.41
2017-01-29T02:31:10.729Z,22.43
2017-01-29T02:31:38.957Z,22.43
2017-01-29T02:32:07.361Z,22.38
2017-01-29T02:33:18.774Z,22.37
2017-01-29T02:33:47.035Z,22.31
2017-01-29T02:34:15.310Z,22.33
2017-01-29T02:34:43.656Z,22.3
2017-01-29T02:35:11.954Z,22.31
2017-01-29T02:35:40.310Z,22.33
2017-01-29T02:36:08.655Z,22.27
2017-01-29T02:36:37.004Z,22.27
2017-01-29T02:37:05.240Z,22.3
2017-01-29T02:37:33.690Z,22.3
2017-01-29T02:38:02.101Z,22.3
2017-01-29T02:39:13.461Z,22.3
2017-01-29T02:39:41.646Z,22.23
2017-01-29T02:40:09.839Z,22.25
2017-01-29T02:40:38.026Z,22.21
2017-01-29T02:41:06.530Z,22.33
2017-01-29T02:41:34.631Z,22.34
2017-01-29T02:42:03.081Z,22.21
2017-01-29T02:42:31.356Z,22.22
2017-01-29T02:42:59.314Z,22.38
2017-01-29T02:43:27.464Z,22.4
2017-01-29T02:43:55.574Z,22.34
2017-01-29T02:45:06.755Z,22.3
2017-01-29T02:45:35.122Z,22.31
2017-01-29T02:46:03.510Z,22.33
2017-01-29T02:46:31.887Z,22.34
2017-01-29T02:47:00.178Z,22.28
2017-01-29T02:47:28.298Z,22.28
2017-01-29T02:47:56.783Z,22.34
2017-01-29T02:48:25.142Z,22.19
2017-01-29T02:48:53.472Z,22.3
2017-01-29T02:49:21.817Z,22.22
2017-01-29T02:49:50.130Z,22.25
2017-01-29T02:51:01.325Z,22.28
2017-01-29T02:51:29.689Z,22.23
2017-01-29T02:51:58.010Z,22.22
2017-01-29T02:52:26.362Z,22.19
2017-01-29T02:52:54.751Z,22.21
2017-01-29T02:53:23.448Z,22.22
2017-01-29T02:53:51.879Z,22.22
2017-01-29T02:54:20.040Z,22.3
2017-01-29T02:54:48.185Z,22.33
2017-01-29T02:55:16.472Z,22.27
2017-01-29T02:55:44.758Z,22.27
2017-01-29T02:56:56.119Z,22.22
2017-01-29T02:57:24.396Z,22.25
2017-01-29T02:57:52.814Z,22.3
2017-01-29T02:58:21.157Z,22.23
2017-01-29T02:58:49.545Z,22.25
2017-01-29T02:59:17.809Z,22.22
2017-01-29T02:59:46.149Z,22.16
2017-01-29T03:00:14.215Z,22.13
2017-01-29T03:00:42.453Z,22.16
2017-01-29T03:01:10.759Z,22.22
2017-01-29T03:01:39.147Z,22.19
2017-01-29T03:02:50.571Z,22.31
2017-01-29T03:03:18.846Z,22.19
2017-01-29T03:03:47.129Z,22.21
2017-01-29T03:04:15.269Z,22.16
2017-01-29T03:04:43.660Z,22.22
2017-01-29T03:05:11.984Z,22.19
2017-01-29T03:05:40.266Z,22.19
2017-01-29T03:06:08.593Z,22.18
2017-01-29T03:06:36.827Z,22.16
2017-01-29T03:07:05.123Z,22.23
2017-01-29T03:07:33.320Z,22.16
2017-01-29T03:08:44.670Z,22.19
2017-01-29T03:09:12.760Z,22.16
2017-01-29T03:09:41.153Z,22.28
2017-01-29T03:10:09.489Z,22.13
2017-01-29T03:10:37.782Z,22.18
2017-01-29T03:11:05.927Z,22.19
2017-01-29T03:11:34.237Z,22.25
2017-01-29T03:12:02.574Z,22.23
2017-01-29T03:12:30.807Z,22.23
2017-01-29T03:12:59.089Z,22.19
2017-01-29T03:13:27.364Z,22.19
2017-01-29T03:14:38.779Z,22.16
2017-01-29T03:15:06.872Z,22.25
2017-01-29T03:15:35.230Z,22.16
2017-01-29T03:16:03.452Z,22.27
2017-01-29T03:16:31.837Z,22.27
2017-01-29T03:17:00.161Z,22.22
2017-01-29T03:17:28.537Z,22.21
2017-01-29T03:17:56.599Z,22.25
2017-01-29T03:18:24.923Z,22.31
2017-01-29T03:18:53.111Z,22.34
2017-01-29T03:19:21.301Z,22.3
2017-01-29T03:20:32.722Z,22.36
2017-01-29T03:21:00.999Z,22.34
2017-01-29T03:21:29.169Z,22.33
2017-01-29T03:21:57.388Z,22.3
2017-01-29T03:22:25.710Z,22.31
2017-01-29T03:22:54.014Z,22.34
2017-01-29T03:23:22.392Z,22.34
2017-01-29T03:23:50.728Z,22.36
2017-01-29T03:24:18.871Z,22.34
2017-01-29T03:24:47.152Z,22.3
2017-01-29T03:25:15.243Z,22.33
2017-01-29T03:26:26.570Z,22.33
2017-01-29T03:26:54.934Z,22.34
2017-01-29T03:27:23.200Z,22.33
2017-01-29T03:27:51.327Z,22.33
2017-01-29T03:28:19.612Z,22.34
2017-01-29T03:28:47.932Z,22.38
2017-01-29T03:29:16.298Z,22.37
2017-01-29T03:29:44.542Z,22.37
2017-01-29T03:30:12.778Z,22.33
2017-01-29T03:30:40.974Z,22.33
2017-01-29T03:31:09.154Z,22.4
2017-01-29T03:32:20.485Z,22.34
2017-01-29T03:32:48.857Z,22.34
2017-01-29T03:33:17.126Z,22.38
2017-01-29T03:33:45.543Z,22.36
2017-01-29T03:34:13.925Z,22.36
2017-01-29T03:34:42.157Z,22.36
2017-01-29T03:35:10.432Z,22.36
2017-01-29T03:35:38.678Z,22.34
2017-01-29T03:36:07.007Z,22.34
2017-01-29T03:36:35.288Z,22.31
2017-01-29T03:37:03.567Z,22.37
2017-01-29T03:38:15.021Z,22.38
2017-01-29T03:38:43.357Z,22.38
2017-01-29T03:39:11.730Z,22.46
2017-01-29T03:39:40.042Z,22.52
2017-01-29T03:40:08.425Z,22.46
2017-01-29T03:40:36.663Z,22.46
2017-01-29T03:41:04.869Z,22.48
2017-01-29T03:41:33.125Z,22.4
2017-01-29T03:42:01.355Z,22.44
2017-01-29T03:42:29.634Z,22.46
2017-01-29T03:42:57.905Z,22.43
2017-01-29T03:44:09.321Z,22.38
2017-01-29T03:44:37.411Z,22.36
2017-01-29T03:45:05.671Z,22.34
2017-01-29T03:45:33.891Z,22.4
2017-01-29T03:46:02.099Z,22.46
2017-01-29T03:46:30.322Z,22.46
2017-01-29T03:46:58.604Z,22.43
2017-01-29T03:47:26.761Z,22.37
2017-01-29T03:47:54.901Z,22.48
2017-01-29T03:48:23.001Z,22.38
2017-01-29T03:48:51.367Z,22.41
2017-01-29T03:50:02.793Z,22.4
2017-01-29T03:50:31.161Z,22.33
2017-01-29T03:50:59.513Z,22.37
2017-01-29T03:51:27.734Z,22.37
2017-01-29T03:51:56.125Z,22.41
2017-01-29T03:52:24.357Z,22.38
2017-01-29T03:52:52.632Z,22.33
2017-01-29T03:53:20.597Z,22.37
2017-01-29T03:53:48.835Z,22.31
2017-01-29T03:54:17.117Z,22.38
2017-01-29T03:54:45.300Z,22.36
2017-01-29T03:55:56.624Z,22.38
2017-01-29T03:56:24.898Z,22.37
2017-01-29T03:56:53.071Z,22.36
2017-01-29T03:57:21.287Z,22.34
2017-01-29T03:57:49.675Z,22.33
2017-01-29T03:58:17.902Z,22.34
2017-01-29T03:58:45.995Z,22.31
2017-01-29T03:59:14.239Z,22.41
2017-01-29T03:59:42.384Z,22.33
2017-01-29T04:00:10.756Z,22.38
2017-01-29T04:00:39.119Z,22.36
2017-01-29T04:01:50.537Z,22.36
2017-01-29T04:02:18.724Z,22.36
2017-01-29T04:02:47.075Z,22.36
2017-01-29T04:03:15.292Z,22.28
2017-01-29T04:03:43.403Z,22.3
2017-01-29T04:04:11.636Z,22.38
2017-01-29T04:04:39.911Z,22.34
2017-01-29T04:05:08.153Z,22.36
2017-01-29T04:05:36.479Z,22.34
2017-01-29T04:06:04.767Z,22.38
2017-01-29T04:06:33.044Z,22.38
2017-01-29T04:07:44.525Z,22.34
2017-01-29T04:08:12.798Z,22.38
2017-01-29T04:08:41.900Z,22.36
2017-01-29T04:09:10.212Z,22.33
2017-01-29T04:09:38.507Z,22.33
2017-01-29T04:10:06.823Z,22.33
2017-01-29T04:10:35.097Z,22.34
2017-01-29T04:11:03.343Z,22.37
2017-01-29T04:11:31.489Z,22.37
2017-01-29T04:11:59.792Z,22.33
2017-01-29T04:12:28.068Z,22.34
2017-01-29T04:13:39.491Z,22.33
2017-01-29T04:14:07.763Z,22.31
2017-01-29T04:14:36.110Z,22.34
2017-01-29T04:15:04.421Z,22.3
2017-01-29T04:15:32.806Z,22.34
2017-01-29T04:16:00.945Z,22.33
2017-01-29T04:16:29.223Z,22.37
2017-01-29T04:16:57.464Z,22.36
2017-01-29T04:17:25.701Z,22.38
2017-01-29T04:17:53.895Z,22.34
2017-01-29T04:18:22.075Z,22.34
2017-01-29T04:19:33.402Z,22.34
2017-01-29T04:20:01.583Z,22.34
2017-01-29T04:20:29.936Z,22.38
2017-01-29T04:20:58.156Z,22.33
2017-01-29T04:21:26.539Z,22.37
2017-01-29T04:21:54.674Z,22.34
2017-01-29T04:22:22.943Z,22.37
2017-01-29T04:22:51.186Z,22.36
2017-01-29T04:23:19.328Z,22.3
2017-01-29T04:23:47.703Z,22.33
2017-01-29T04:24:15.880Z,22.3
2017-01-29T04:25:27.301Z,22.28
2017-01-29T04:25:55.395Z,22.33
2017-01-29T04:26:23.659Z,22.33
2017-01-29T04:26:51.878Z,22.33
2017-01-29T04:27:20.170Z,22.28
2017-01-29T04:27:48.401Z,22.28
2017-01-29T04:28:16.682Z,22.3
2017-01-29T04:28:45.009Z,22.33
2017-01-29T04:29:13.061Z,22.33
2017-01-29T04:29:41.343Z,22.3
2017-01-29T04:30:09.521Z,22.3
2017-01-29T04:31:20.851Z,22.36
2017-01-29T04:31:49.217Z,22.33
2017-01-29T04:32:17.478Z,22.27
2017-01-29T04:32:45.700Z,22.3
2017-01-29T04:33:13.995Z,22.34
2017-01-29T04:33:42.139Z,22.3
2017-01-29T04:34:10.505Z,22.31
2017-01-29T04:34:38.778Z,22.31
2017-01-29T04:35:06.926Z,22.34
2017-01-29T04:35:35.116Z,22.31
2017-01-29T04:36:03.387Z,22.33
2017-01-29T04:37:14.716Z,22.33
2017-01-29T04:37:43.085Z,22.3
2017-01-29T04:38:11.351Z,22.3
2017-01-29T04:38:39.567Z,22.3
2017-01-29T04:39:07.862Z,22.36
2017-01-29T04:39:36.094Z,22.31
2017-01-29T04:40:04.289Z,22.33
2017-01-29T04:40:32.625Z,22.4
2017-01-29T04:41:00.853Z,22.34
2017-01-29T04:41:29.129Z,22.34
2017-01-29T04:41:57.491Z,22.33
2017-01-29T04:43:08.909Z,22.3
2017-01-29T04:43:37.090Z,22.3
2017-01-29T04:44:05.350Z,22.3
2017-01-29T04:44:33.565Z,22.31
2017-01-29T04:45:01.950Z,22.34
2017-01-29T04:45:30.264Z,22.34
2017-01-29T04:45:58.573Z,22.33
2017-01-29T04:46:26.810Z,22.33
2017-01-29T04:46:55.134Z,22.33
2017-01-29T04:47:23.234Z,22.33
2017-01-29T04:47:51.511Z,22.31
2017-01-29T04:49:02.839Z,22.38
2017-01-29T04:49:30.931Z,22.33
2017-01-29T04:49:59.194Z,22.34
2017-01-29T04:50:27.415Z,22.34
2017-01-29T04:50:55.802Z,22.3
2017-01-29T04:51:23.941Z,22.33
2017-01-29T04:51:52.211Z,22.4
2017-01-29T04:52:20.363Z,22.36
2017-01-29T04:52:48.604Z,22.34
2017-01-29T04:53:16.793Z,22.37
2017-01-29T04:53:45.161Z,22.37
2017-01-29T04:54:56.489Z,22.3
2017-01-29T04:55:24.762Z,22.33
2017-01-29T04:55:53.120Z,22.34
2017-01-29T04:56:21.337Z,22.3
2017-01-29T04:56:49.728Z,22.31
2017-01-29T04:57:17.956Z,22.33
2017-01-29T04:57:46.233Z,22.36
2017-01-29T04:58:14.379Z,22.33
2017-01-29T04:58:42.523Z,22.37
2017-01-29T04:59:10.627Z,22.36
2017-01-29T04:59:38.802Z,22.34
2017-01-29T05:00:50.214Z,22.36
2017-01-29T05:01:18.396Z,22.43
2017-01-29T05:01:46.659Z,22.44
2017-01-29T05:02:14.884Z,22.48
2017-01-29T05:02:43.271Z,22.48
2017-01-29T05:03:11.496Z,22.44
2017-01-29T05:03:39.864Z,22.48
2017-01-29T05:04:08.012Z,22.46
2017-01-29T05:04:36.258Z,22.43
2017-01-29T05:05:04.356Z,22.43
2017-01-29T05:05:32.722Z,22.44
2017-01-29T05:06:44.141Z,22.48
2017-01-29T05:07:12.324Z,22.51
2017-01-29T05:07:40.587Z,22.46
2017-01-29T05:08:08.809Z,22.46
2017-01-29T05:08:37.011Z,22.44
2017-01-29T05:09:05.235Z,22.4
2017-01-29T05:09:33.423Z,22.49
2017-01-29T05:10:01.658Z,22.49
2017-01-29T05:10:29.799Z,22.52
2017-01-29T05:10:58.082Z,22.49
2017-01-29T05:11:26.445Z,22.49
2017-01-29T05:12:37.775Z,22.44
2017-01-29T05:13:05.866Z,22.38
2017-01-29T05:13:34.129Z,22.41
2017-01-29T05:14:02.351Z,22.38
2017-01-29T05:14:30.642Z,22.43
2017-01-29T05:14:58.784Z,22.37
2017-01-29T05:15:27.061Z,22.43
2017-01-29T05:15:55.305Z,22.41
2017-01-29T05:16:23.542Z,22.43
2017-01-29T05:16:51.640Z,22.43
2017-01-29T05:17:19.912Z,22.46
2017-01-29T05:18:31.333Z,22.43
2017-01-29T05:18:59.514Z,22.41
2017-01-29T05:19:27.773Z,22.44
2017-01-29T05:19:56.084Z,22.4
2017-01-29T05:20:24.464Z,22.44
2017-01-29T05:20:52.781Z,22.43
2017-01-29T05:21:21.054Z,22.4
2017-01-29T05:21:49.388Z,22.46
2017-01-29T05:22:17.441Z,22.44
2017-01-29T05:22:45.718Z,22.4
2017-01-29T05:23:13.713Z,22.41
2017-01-29T05:24:25.133Z,22.46
2017-01-29T05:24:53.319Z,22.41
2017-01-29T05:25:21.580Z,22.41
2017-01-29T05:25:49.893Z,22.49
2017-01-29T05:26:18.196Z,22.48
2017-01-29T05:26:46.428Z,22.49
2017-01-29T05:27:14.704Z,22.44
2017-01-29T05:27:42.945Z,22.48
2017-01-29T05:28:11.267Z,22.49
2017-01-29T05:28:39.460Z,22.44
2017-01-29T05:29:07.734Z,22.44
2017-01-29T05:30:18.979Z,22.51
2017-01-29T05:30:47.347Z,22.46
2017-01-29T05:31:15.350Z,22.43
2017-01-29T05:31:43.573Z,22.48
2017-01-29T05:32:11.867Z,22.46
2017-01-29T05:32:40.098Z,22.46
2017-01-29T05:33:08.378Z,22.51
2017-01-29T05:33:36.618Z,22.49
2017-01-29T05:34:04.850Z,22.43
2017-01-29T05:34:33.041Z,22.41
2017-01-29T05:35:01.123Z,22.44
2017-01-29T05:36:12.450Z,22.46
2017-01-29T05:36:40.724Z,22.44
2017-01-29T05:37:09.074Z,22.48
2017-01-29T05:37:37.194Z,22.4
2017-01-29T05:38:05.396Z,22.43
2017-01-29T05:38:33.712Z,22.44
2017-01-29T05:39:01.987Z,22.4
2017-01-29T05:39:30.220Z,22.46
2017-01-29T05:39:58.453Z,22.44
2017-01-29T05:40:26.554Z,22.46
2017-01-29T05:40:54.643Z,22.43
2017-01-29T05:42:05.963Z,22.44
2017-01-29T05:42:34.240Z,22.37
2017-01-29T05:43:02.587Z,22.33
2017-01-29T05:43:30.899Z,22.38
2017-01-29T05:43:59.283Z,22.38
2017-01-29T05:44:27.428Z,22.33
2017-01-29T05:44:55.797Z,22.31
2017-01-29T05:45:24.120Z,22.36
2017-01-29T05:45:52.351Z,22.28
2017-01-29T05:46:20.629Z,22.3
2017-01-29T05:46:48.631Z,22.3
2017-01-29T05:47:59.806Z,22.31
2017-01-29T05:48:28.082Z,22.33
2017-01-29T05:48:56.434Z,22.31
2017-01-29T05:49:24.657Z,22.3
2017-01-29T05:49:52.953Z,22.31
2017-01-29T05:50:21.187Z,22.33
2017-01-29T05:50:49.372Z,22.33
2017-01-29T05:51:17.611Z,22.34
2017-01-29T05:51:45.750Z,22.34
2017-01-29T05:52:13.875Z,22.33
2017-01-29T05:52:42.061Z,22.38
2017-01-29T05:53:53.293Z,22.37
2017-01-29T05:54:21.476Z,22.36
2017-01-29T05:54:49.548Z,22.33
2017-01-29T05:55:17.588Z,22.38
2017-01-29T05:55:45.793Z,22.37
2017-01-29T05:56:14.118Z,22.33
2017-01-29T05:56:42.394Z,22.38
2017-01-29T05:57:10.535Z,22.31
2017-01-29T05:57:38.764Z,22.33
2017-01-29T05:58:07.046Z,22.36
2017-01-29T05:58:35.127Z,22.36
2017-01-29T05:59:46.284Z,22.34
2017-01-29T06:00:14.371Z,22.3
2017-01-29T06:00:42.632Z,22.34
2017-01-29T06:01:10.762Z,22.33
2017-01-29T06:01:39.149Z,22.34
2017-01-29T06:02:07.375Z,22.3
2017-01-29T06:02:35.468Z,22.3
2017-01-29T06:03:03.522Z,22.33
2017-01-29T06:03:31.666Z,22.3
2017-01-29T06:04:00.035Z,22.33
2017-01-29T06:04:28.214Z,22.33
2017-01-29T06:05:39.630Z,22.33
2017-01-29T06:06:07.816Z,22.31
2017-01-29T06:06:35.988Z,22.23
2017-01-29T06:07:04.294Z,22.33
2017-01-29T06:07:32.496Z,22.27
2017-01-29T06:08:00.540Z,22.33
2017-01-29T06:08:28.727Z,22.28
2017-01-29T06:08:56.967Z,22.34
2017-01-29T06:09:25.110Z,22.27
2017-01-29T06:09:53.479Z,22.25
2017-01-29T06:10:21.753Z,22.22
2017-01-29T06:11:33.168Z,22.27
2017-01-29T06:12:01.534Z,22.3
2017-01-29T06:12:29.891Z,22.21
2017-01-29T06:12:58.021Z,22.21
2017-01-29T06:13:26.320Z,22.21
2017-01-29T06:13:54.645Z,22.16
2017-01-29T06:14:22.922Z,22.21
2017-01-29T06:14:51.166Z,22.19
2017-01-29T06:15:19.691Z,22.19
2017-01-29T06:15:47.791Z,22.22
2017-01-29T06:16:16.062Z,22.25
2017-01-29T06:17:27.201Z,22.22
2017-01-29T06:17:55.480Z,22.27
2017-01-29T06:18:23.737Z,22.16
2017-01-29T06:18:51.952Z,22.22
2017-01-29T06:19:20.330Z,22.34
2017-01-29T06:19:48.459Z,22.16
2017-01-29T06:20:16.647Z,22.18
2017-01-29T06:20:44.888Z,22.18
2017-01-29T06:21:13.123Z,22.18
2017-01-29T06:21:41.315Z,22.28
2017-01-29T06:22:09.498Z,22.16
2017-01-29T06:23:20.641Z,22.22
2017-01-29T06:23:49.012Z,22.19
2017-01-29T06:24:17.359Z,22.25
2017-01-29T06:24:45.491Z,22.22
2017-01-29T06:25:13.692Z,22.16
2017-01-29T06:25:42.017Z,22.21
2017-01-29T06:26:10.289Z,22.16
2017-01-29T06:26:38.528Z,22.15
2017-01-29T06:27:06.666Z,22.23
2017-01-29T06:27:34.853Z,22.16
2017-01-29T06:28:03.125Z,22.25
2017-01-29T06:29:14.364Z,22.16
2017-01-29T06:29:42.729Z,22.15
2017-01-29T06:30:11.077Z,22.16
2017-01-29T06:30:39.302Z,22.16
2017-01-29T06:31:07.498Z,22.23
2017-01-29T06:31:35.724Z,22.18
2017-01-29T06:32:04.091Z,22.22
2017-01-29T06:32:32.426Z,22.19
2017-01-29T06:33:00.661Z,22.15
2017-01-29T06:33:28.852Z,22.12
2017-01-29T06:33:57.030Z,22.13
2017-01-29T06:35:08.351Z,22.21
2017-01-29T06:35:36.530Z,22.19
2017-01-29T06:36:04.794Z,22.19
2017-01-29T06:36:33.102Z,22.19
2017-01-29T06:37:01.303Z,22.07
2017-01-29T06:37:29.442Z,22.15
2017-01-29T06:37:57.625Z,22.12
2017-01-29T06:38:25.683Z,22.09
2017-01-29T06:38:53.919Z,22.21
2017-01-29T06:39:22.014Z,22.13
2017-01-29T06:39:50.287Z,22.11
2017-01-29T06:41:01.519Z,22.13
2017-01-29T06:41:29.700Z,22.15
2017-01-29T06:41:57.871Z,22.04
2017-01-29T06:42:25.996Z,22.06
2017-01-29T06:42:54.288Z,22.18
2017-01-29T06:43:22.516Z,22.06
2017-01-29T06:43:50.885Z,22.16
2017-01-29T06:44:19.213Z,22.07
2017-01-29T06:44:47.350Z,22.07
2017-01-29T06:45:15.639Z,22.04
2017-01-29T06:45:43.907Z,22.03
2017-01-29T06:46:55.237Z,22.11
2017-01-29T06:47:23.510Z,22.04
2017-01-29T06:47:51.861Z,22.09
2017-01-29T06:48:20.076Z,22.12
2017-01-29T06:48:48.364Z,22.07
2017-01-29T06:49:16.503Z,22.07
2017-01-29T06:49:44.779Z,22.06
2017-01-29T06:50:13.116Z,22.06
2017-01-29T06:50:41.346Z,22.04
2017-01-29T06:51:09.715Z,22.06
2017-01-29T06:51:38.074Z,22.06
2017-01-29T06:52:49.309Z,22.06
2017-01-29T06:53:17.494Z,22.06
2017-01-29T06:53:45.755Z,21.98
2017-01-29T06:54:14.432Z,22.01
2017-01-29T06:54:42.544Z,22.03
2017-01-29T06:55:10.683Z,22.07
2017-01-29T06:55:38.873Z,22.04